Time;durP1;ratioP1;P1;durP2;ratioP2;P2;SDS_P1;SDS_P2;PMS_P1;PMS_P2;Temp;Humidity;BMP_temperature;BMP_pressure;BME280_temperature;BME280_humidity;BME280_pressure;Samples;Min_cycle;Max_cycle;Signal;HPM_P1;HPM_P2
2024/04/10 00:01:00;;;;;;;20.40;2.80;;;10.70;99.90;;;;;;7304046;19;20207;-86
2024/04/10 00:03:28;;;;;;;24.10;3.30;;;10.70;99.90;;;;;;7286031;19;20293;-86
2024/04/10 00:06:08;;;;;;;28.10;3.17;;;10.60;99.90;;;;;;7285140;19;20185;-86
2024/04/10 00:08:35;;;;;;;23.60;3.57;;;10.40;99.90;;;;;;7266802;19;20189;-85
2024/04/10 00:11:01;;;;;;;22.27;2.93;;;10.30;99.90;;;;;;7309082;19;20209;-87
2024/04/10 00:13:29;;;;;;;26.93;3.17;;;10.30;99.90;;;;;;7284853;19;20267;-86
2024/04/10 00:16:02;;;;;;;21.70;3.63;;;10.20;99.90;;;;;;7284671;19;20554;-86
2024/04/10 00:18:29;;;;;;;21.43;3.23;;;10.20;99.90;;;;;;7287702;19;20263;-86
2024/04/10 00:20:56;;;;;;;28.87;3.23;;;10.20;99.90;;;;;;7288971;19;20195;-86
2024/04/10 00:23:22;;;;;;;25.13;3.50;;;10.20;99.90;;;;;;7284387;19;20220;-86
2024/04/10 00:26:00;;;;;;;28.10;3.23;;;10.20;99.90;;;;;;7285396;19;20183;-86
2024/04/10 00:28:28;;;;;;;34.60;3.80;;;10.20;99.90;;;;;;7286680;19;20192;-86
2024/04/10 00:30:54;;;;;;;22.13;3.27;;;10.20;99.90;;;;;;7285560;19;20719;-86
2024/04/10 00:33:20;;;;;;;22.87;3.27;;;10.30;99.90;;;;;;7281401;19;20200;-85
2024/04/10 00:35:56;;;;;;;24.70;3.23;;;10.20;99.90;;;;;;7286126;19;20201;-86
2024/04/10 00:38:22;;;;;;;23.63;3.00;;;10.20;99.90;;;;;;7283450;19;20198;-86
2024/04/10 00:41:00;;;;;;;24.13;3.50;;;10.20;99.90;;;;;;7286280;19;20232;-86
2024/04/10 00:43:27;;;;;;;24.50;3.27;;;10.20;99.90;;;;;;7283642;19;20200;-85
2024/04/10 00:46:04;;;;;;;22.60;3.93;;;10.20;99.90;;;;;;7286225;19;20190;-87
2024/04/10 00:48:30;;;;;;;17.07;2.87;;;10.10;99.90;;;;;;7286911;19;21763;-86
2024/04/10 00:50:57;;;;;;;29.03;3.63;;;10.10;99.90;;;;;;7284971;19;20184;-86
2024/04/10 00:53:24;;;;;;;22.93;3.03;;;10.00;99.90;;;;;;7285473;19;20239;-86
2024/04/10 00:55:50;;;;;;;20.80;3.00;;;10.00;99.90;;;;;;7286132;19;20195;-86
2024/04/10 00:58:16;;;;;;;24.23;3.30;;;10.00;99.90;;;;;;7285808;19;20193;-86
2024/04/10 01:00:42;;;;;;;20.13;2.80;;;9.80;99.90;;;;;;7286460;19;20194;-86
2024/04/10 01:03:09;;;;;;;21.37;3.77;;;9.70;99.90;;;;;;7287991;19;20280;-86
2024/04/10 01:05:35;;;;;;;25.73;3.20;;;9.70;99.90;;;;;;7286630;19;20259;-85
2024/04/10 01:08:02;;;;;;;22.80;2.90;;;9.70;99.90;;;;;;7310049;19;20189;-86
2024/04/10 01:10:29;;;;;;;25.13;3.20;;;9.70;99.90;;;;;;7285902;19;20190;-86
2024/04/10 01:12:55;;;;;;;21.17;2.70;;;9.70;99.90;;;;;;7285233;19;20182;-86
2024/04/10 01:15:21;;;;;;;23.27;3.20;;;9.70;99.90;;;;;;7291195;19;20197;-87
2024/04/10 01:17:47;;;;;;;20.17;3.33;;;9.60;99.90;;;;;;7301613;19;20189;-86
2024/04/10 01:20:13;;;;;;;19.10;3.13;;;9.60;99.90;;;;;;7294075;19;20214;-85
2024/04/10 01:22:38;;;;;;;25.63;3.00;;;9.60;99.90;;;;;;7302493;19;20211;-85
2024/04/10 01:25:04;;;;;;;27.07;3.57;;;9.60;99.90;;;;;;7301547;19;20184;-87
2024/04/10 01:27:32;;;;;;;21.73;3.13;;;9.60;99.90;;;;;;7323680;19;20208;-87
2024/04/10 01:29:58;;;;;;;27.50;3.57;;;9.60;99.90;;;;;;7294258;19;20259;-85
2024/04/10 01:32:24;;;;;;;29.83;3.90;;;9.60;99.90;;;;;;7285190;19;20205;-86
2024/04/10 01:34:50;;;;;;;25.27;3.07;;;9.60;99.90;;;;;;7283530;19;20190;-86
2024/04/10 01:37:15;;;;;;;19.27;2.80;;;9.60;99.90;;;;;;7283286;19;20575;-86
2024/04/10 01:39:41;;;;;;;20.43;3.30;;;9.50;99.90;;;;;;7282759;19;20199;-86
2024/04/10 01:42:07;;;;;;;23.90;3.10;;;9.50;99.90;;;;;;7285888;19;20203;-87
2024/04/10 01:44:33;;;;;;;29.03;3.27;;;9.40;99.90;;;;;;7291125;19;20535;-86
2024/04/10 01:46:59;;;;;;;22.57;3.10;;;9.30;99.90;;;;;;7307606;19;20187;-87
2024/04/10 01:49:26;;;;;;;20.90;3.20;;;9.30;99.90;;;;;;7287611;19;20203;-86
2024/04/10 01:51:52;;;;;;;22.40;3.30;;;9.20;99.90;;;;;;7284796;19;20261;-86
2024/04/10 01:54:19;;;;;;;24.70;3.03;;;9.30;99.90;;;;;;7283883;19;20673;-86
2024/04/10 01:56:44;;;;;;;24.40;3.53;;;9.20;99.90;;;;;;7281856;19;20192;-87
2024/04/10 01:59:11;;;;;;;20.03;2.70;;;9.20;99.90;;;;;;7282949;19;20565;-87
2024/04/10 02:01:37;;;;;;;22.90;3.07;;;9.30;99.90;;;;;;7282340;19;20559;-86
2024/04/10 02:04:03;;;;;;;24.37;3.50;;;9.30;99.90;;;;;;7294344;19;20260;-86
2024/04/10 02:06:29;;;;;;;21.87;2.83;;;9.30;99.90;;;;;;7305225;19;20199;-86
2024/04/10 02:08:55;;;;;;;26.37;3.50;;;9.30;99.90;;;;;;7282640;19;20231;-87
2024/04/10 02:11:28;;;;;;;16.03;2.77;;;9.40;99.90;;;;;;7284351;19;20229;-86
2024/04/10 02:13:54;;;;;;;23.10;3.00;;;9.40;99.90;;;;;;7281797;19;20218;-86
2024/04/10 02:16:23;;;;;;;19.37;3.00;;;9.30;99.90;;;;;;7279709;19;20215;-87
2024/04/10 02:18:50;;;;;;;25.90;3.40;;;9.30;99.90;;;;;;7284458;19;20201;-86
2024/04/10 02:21:17;;;;;;;30.13;3.50;;;9.30;99.90;;;;;;7282360;19;20200;-87
2024/04/10 02:23:43;;;;;;;21.87;3.47;;;9.20;99.90;;;;;;7282723;19;20202;-87
2024/04/10 02:26:12;;;;;;;18.20;3.30;;;9.20;99.90;;;;;;7288372;19;20215;-87
2024/04/10 02:28:38;;;;;;;16.77;2.57;;;9.20;99.90;;;;;;7288789;19;20193;-86
2024/04/10 02:31:05;;;;;;;21.80;3.03;;;9.20;99.90;;;;;;7290967;19;20235;-86
2024/04/10 02:33:35;;;;;;;22.50;2.93;;;9.10;99.90;;;;;;7311272;19;20196;-86
2024/04/10 02:36:01;;;;;;;20.93;3.37;;;9.10;99.90;;;;;;7289432;19;20204;-86
2024/04/10 02:38:32;;;;;;;18.37;3.10;;;9.20;99.90;;;;;;7289423;19;20188;-86
2024/04/10 02:40:57;;;;;;;24.20;3.67;;;9.20;99.90;;;;;;7290764;19;20548;-87
2024/04/10 02:43:23;;;;;;;22.73;2.77;;;9.20;99.90;;;;;;7289970;19;20193;-85
2024/04/10 02:46:00;;;;;;;23.40;2.93;;;9.20;99.90;;;;;;7289113;19;20198;-87
2024/04/10 02:48:26;;;;;;;16.73;2.87;;;9.10;99.90;;;;;;7287977;19;20207;-87
2024/04/10 02:50:53;;;;;;;19.30;2.63;;;9.00;99.90;;;;;;7289360;19;20557;-87
2024/04/10 02:53:19;;;;;;;20.27;2.63;;;9.00;99.90;;;;;;7289000;19;20185;-87
2024/04/10 02:55:45;;;;;;;27.10;3.13;;;8.90;99.90;;;;;;7287724;19;20268;-86
2024/04/10 02:58:12;;;;;;;21.67;3.13;;;8.90;99.90;;;;;;7288680;19;20289;-87
2024/04/10 03:00:48;;;;;;;20.63;2.67;;;8.90;99.90;;;;;;7289615;19;21021;-87
2024/04/10 03:03:15;;;;;;;23.60;3.20;;;8.90;99.90;;;;;;7287611;19;20228;-87
2024/04/10 03:05:41;;;;;;;20.00;2.90;;;8.90;99.90;;;;;;7289437;19;20200;-87
2024/04/10 03:08:07;;;;;;;21.50;3.07;;;8.90;99.90;;;;;;7288268;19;20201;-86
2024/04/10 03:10:33;;;;;;;20.53;3.20;;;8.90;99.90;;;;;;7305636;19;20189;-86
2024/04/10 03:12:59;;;;;;;24.77;3.03;;;8.80;99.90;;;;;;7307582;19;20198;-87
2024/04/10 03:15:26;;;;;;;19.40;2.73;;;8.80;99.90;;;;;;7288749;19;20220;-86
2024/04/10 03:17:53;;;;;;;22.30;3.67;;;8.70;99.90;;;;;;7288111;19;20199;-87
2024/04/10 03:20:20;;;;;;;17.90;2.70;;;8.70;99.90;;;;;;7287927;19;20203;-87
2024/04/10 03:22:46;;;;;;;22.40;3.07;;;8.70;99.90;;;;;;7288086;19;20218;-87
2024/04/10 03:25:12;;;;;;;20.83;3.13;;;8.70;99.90;;;;;;7288396;19;20195;-87
2024/04/10 03:27:40;;;;;;;21.80;2.80;;;8.60;99.90;;;;;;7288313;19;20196;-86
2024/04/10 03:30:09;;;;;;;25.83;2.87;;;8.60;99.90;;;;;;7285330;19;20190;-87
2024/04/10 03:32:37;;;;;;;23.93;2.80;;;8.60;99.90;;;;;;7287655;19;20683;-86
2024/04/10 03:35:04;;;;;;;22.40;2.87;;;8.60;99.90;;;;;;7305479;19;20552;-85
2024/04/10 03:37:30;;;;;;;23.97;2.83;;;8.70;99.90;;;;;;7309634;19;20211;-87
2024/04/10 03:39:56;;;;;;;16.03;2.37;;;8.60;99.90;;;;;;7286120;19;20195;-86
2024/04/10 03:42:25;;;;;;;20.20;2.93;;;8.60;99.90;;;;;;7287580;19;20181;-87
2024/04/10 03:44:51;;;;;;;19.03;2.90;;;8.40;99.90;;;;;;7288501;19;20218;-87
2024/04/10 03:47:16;;;;;;;21.73;3.40;;;8.40;99.90;;;;;;7288775;19;20180;-87
2024/04/10 03:49:43;;;;;;;18.63;2.67;;;8.40;99.90;;;;;;7285268;19;20210;-87
2024/04/10 03:52:09;;;;;;;25.70;2.97;;;8.50;99.90;;;;;;7287109;19;20982;-86
2024/04/10 03:54:36;;;;;;;25.93;3.10;;;8.50;99.90;;;;;;7286817;19;20207;-86
2024/04/10 03:57:02;;;;;;;20.00;3.20;;;8.50;99.90;;;;;;7307635;19;20179;-87
2024/04/10 03:59:27;;;;;;;15.93;2.57;;;8.40;99.90;;;;;;7284598;19;20199;-87
2024/04/10 04:01:56;;;;;;;20.57;3.20;;;8.40;99.90;;;;;;7287822;19;20183;-87
2024/04/10 04:04:21;;;;;;;23.07;2.90;;;8.40;99.90;;;;;;7286840;19;20225;-86
2024/04/10 04:06:49;;;;;;;22.50;3.47;;;8.50;99.90;;;;;;7288133;19;20608;-87
2024/04/10 04:09:15;;;;;;;16.23;2.73;;;8.40;99.90;;;;;;7286893;19;20188;-87
2024/04/10 04:11:41;;;;;;;21.93;2.93;;;8.40;99.90;;;;;;7286874;19;20209;-87
2024/04/10 04:14:07;;;;;;;24.53;3.17;;;8.40;99.90;;;;;;7286483;19;20198;-86
2024/04/10 04:16:34;;;;;;;16.53;2.97;;;8.40;99.90;;;;;;7305691;19;20666;-84
2024/04/10 04:19:03;;;;;;;22.80;3.03;;;8.40;99.90;;;;;;7307645;19;20196;-87
2024/04/10 04:21:31;;;;;;;14.73;3.07;;;8.40;99.90;;;;;;7287715;19;20219;-87
2024/04/10 04:24:00;;;;;;;17.90;2.80;;;8.40;99.90;;;;;;7285417;19;20292;-87
2024/04/10 04:26:26;;;;;;;28.70;3.00;;;8.40;99.90;;;;;;7284121;19;20651;-87
2024/04/10 04:28:53;;;;;;;23.23;2.97;;;8.40;99.90;;;;;;7286386;19;20190;-87
2024/04/10 04:31:19;;;;;;;22.97;3.30;;;8.40;99.90;;;;;;7287238;19;20207;-86
2024/04/10 04:33:44;;;;;;;17.57;2.73;;;8.40;99.90;;;;;;7285820;19;20192;-86
2024/04/10 04:36:11;;;;;;;18.20;3.50;;;8.30;99.90;;;;;;7284256;19;20190;-86
2024/04/10 04:38:37;;;;;;;23.47;3.03;;;8.20;99.90;;;;;;7286834;19;20205;-87
2024/04/10 04:41:04;;;;;;;17.43;2.83;;;8.20;99.90;;;;;;7303486;19;20280;-83
2024/04/10 04:43:30;;;;;;;28.17;3.23;;;8.20;99.90;;;;;;7305898;19;20194;-86
2024/04/10 04:45:55;;;;;;;19.43;2.90;;;8.20;99.90;;;;;;7284133;19;20182;-87
2024/04/10 04:48:21;;;;;;;24.13;3.30;;;8.10;99.90;;;;;;7284808;19;20202;-87
2024/04/10 04:50:48;;;;;;;25.03;3.07;;;8.10;99.90;;;;;;7285499;19;20199;-87
2024/04/10 04:53:15;;;;;;;24.37;3.10;;;8.20;99.90;;;;;;7284384;19;20195;-86
2024/04/10 04:55:42;;;;;;;15.23;2.90;;;8.10;99.90;;;;;;7285062;19;20199;-87
2024/04/10 04:58:08;;;;;;;20.60;3.10;;;8.10;99.90;;;;;;7285882;19;20181;-88
2024/04/10 05:00:34;;;;;;;27.50;4.27;;;8.10;99.90;;;;;;7298354;19;20199;-86
2024/04/10 05:03:03;;;;;;;22.90;3.03;;;8.10;99.90;;;;;;7306041;19;20186;-90
2024/04/10 05:05:33;;;;;;;28.23;3.43;;;8.10;99.90;;;;;;7284604;19;20218;-87
2024/04/10 05:07:59;;;;;;;22.47;2.97;;;8.10;99.90;;;;;;7286118;19;20194;-89
2024/04/10 05:10:26;;;;;;;19.93;2.80;;;8.20;99.90;;;;;;7285565;19;20264;-86
2024/04/10 05:12:51;;;;;;;21.77;3.53;;;8.20;99.90;;;;;;7283105;19;20649;-89
2024/04/10 05:15:17;;;;;;;28.53;4.47;;;8.20;99.90;;;;;;7282728;19;20219;-88
2024/04/10 05:17:45;;;;;;;20.87;3.03;;;8.20;99.90;;;;;;7283577;19;20191;-87
2024/04/10 05:20:14;;;;;;;21.47;3.97;;;8.20;99.90;;;;;;7282628;19;20223;-84
2024/04/10 05:22:42;;;;;;;24.63;3.23;;;8.30;99.90;;;;;;7280934;19;20203;-85
2024/04/10 05:25:09;;;;;;;22.27;3.37;;;8.40;99.90;;;;;;7285362;19;20200;-86
2024/04/10 05:27:38;;;;;;;21.77;3.27;;;8.50;99.90;;;;;;7285648;19;20195;-84
2024/04/10 05:30:08;;;;;;;22.20;3.47;;;8.60;99.90;;;;;;7290805;19;20191;-84
2024/04/10 05:32:36;;;;;;;21.23;3.20;;;8.70;99.90;;;;;;7284826;19;20539;-85
2024/04/10 05:35:04;;;;;;;23.20;3.17;;;8.70;99.90;;;;;;7306125;19;20196;-85
2024/04/10 05:37:31;;;;;;;20.30;3.30;;;8.90;99.90;;;;;;7283577;19;20203;-85
2024/04/10 05:40:08;;;;;;;24.47;3.33;;;9.40;99.90;;;;;;7284776;19;20190;-85
2024/04/10 05:42:38;;;;;;;20.23;3.00;;;10.20;99.90;;;;;;7283468;19;20217;-85
2024/04/10 05:45:08;;;;;;;15.90;2.80;;;11.00;99.90;;;;;;7279180;19;20184;-85
2024/04/10 05:47:35;;;;;;;19.60;2.97;;;11.60;99.90;;;;;;7295760;19;20210;-85
2024/04/10 05:50:01;;;;;;;20.13;3.10;;;12.20;99.90;;;;;;7304978;19;20192;-82
2024/04/10 05:52:30;;;;;;;16.83;2.70;;;12.90;99.90;;;;;;7283299;19;20751;-86
2024/04/10 05:54:56;;;;;;;19.43;2.77;;;13.50;99.90;;;;;;7283353;19;20214;-83
2024/04/10 05:57:24;;;;;;;19.33;2.80;;;13.90;99.90;;;;;;7280314;19;20190;-83
2024/04/10 05:59:57;;;;;;;16.80;2.93;;;14.20;99.90;;;;;;7284114;19;20202;-81
2024/04/10 06:02:24;;;;;;;19.77;3.13;;;14.40;99.90;;;;;;7285796;19;20190;-83
2024/04/10 06:04:59;;;;;;;14.93;2.60;;;14.50;99.90;;;;;;7288810;19;20798;-84
2024/04/10 06:07:25;;;;;;;13.23;2.90;;;14.80;99.90;;;;;;7283428;19;20539;-84
2024/04/10 06:09:54;;;;;;;19.50;3.17;;;15.00;99.90;;;;;;7289696;19;20192;-86
2024/04/10 06:12:24;;;;;;;19.77;3.37;;;15.60;99.90;;;;;;7288246;19;20199;-81
2024/04/10 06:14:55;;;;;;;16.00;3.60;;;16.10;99.90;;;;;;7287560;19;20595;-80
2024/04/10 06:17:21;;;;;;;16.07;2.87;;;16.50;99.90;;;;;;7285912;19;20698;-82
2024/04/10 06:19:50;;;;;;;18.27;2.93;;;16.50;99.90;;;;;;7288060;19;20686;-81
2024/04/10 06:22:17;;;;;;;19.50;3.40;;;17.10;99.90;;;;;;7288505;19;20186;-81
2024/04/10 06:24:43;;;;;;;17.37;2.90;;;17.60;99.90;;;;;;7286692;19;20202;-82
2024/04/10 06:27:09;;;;;;;16.93;2.87;;;17.60;99.90;;;;;;7287019;19;20177;-83
2024/04/10 06:29:35;;;;;;;17.60;2.53;;;17.30;99.90;;;;;;7289433;19;20709;-83
2024/04/10 06:32:01;;;;;;;20.33;3.20;;;17.00;99.90;;;;;;7311343;19;20197;-82
2024/04/10 06:34:26;;;;;;;19.90;3.77;;;17.00;99.90;;;;;;7288636;19;20183;-83
2024/04/10 06:36:52;;;;;;;18.20;3.20;;;16.60;99.90;;;;;;7284373;19;20188;-83
2024/04/10 06:39:18;;;;;;;16.00;2.97;;;15.90;99.90;;;;;;7287285;19;20199;-83
2024/04/10 06:41:44;;;;;;;17.20;2.83;;;15.30;99.90;;;;;;7288488;19;20198;-83
2024/04/10 06:44:09;;;;;;;17.17;3.03;;;14.80;99.90;;;;;;7287057;19;20185;-83
2024/04/10 06:46:35;;;;;;;16.00;2.90;;;15.20;99.90;;;;;;7285904;19;20250;-83
2024/04/10 06:49:01;;;;;;;12.77;2.63;;;16.80;99.90;;;;;;7311062;19;20186;-84
2024/04/10 06:51:27;;;;;;;14.63;2.83;;;18.10;99.90;;;;;;7287104;19;20651;-83
2024/04/10 06:53:53;;;;;;;17.10;3.57;;;19.90;99.90;;;;;;7287800;19;20196;-85
2024/04/10 06:56:19;;;;;;;15.07;2.90;;;19.70;99.90;;;;;;7286539;19;20556;-86
2024/04/10 06:58:44;;;;;;;13.80;2.67;;;21.40;99.90;;;;;;7287931;19;20185;-84
2024/04/10 07:01:10;;;;;;;14.33;3.07;;;22.70;99.90;;;;;;7288052;19;20186;-83
2024/04/10 07:03:39;;;;;;;13.73;2.70;;;23.30;99.90;;;;;;7284650;19;20547;-82
2024/04/10 07:06:11;;;;;;;14.50;2.77;;;21.80;99.90;;;;;;7289808;19;20174;-83
2024/04/10 07:08:39;;;;;;;14.57;2.97;;;23.10;99.90;;;;;;7287979;19;20192;-82
2024/04/10 07:11:09;;;;;;;11.93;2.80;;;24.30;99.90;;;;;;7289912;19;20195;-82
2024/04/10 07:13:56;;;;;;;13.90;2.67;;;24.60;99.90;;;;;;7290339;19;20215;-83
2024/04/10 07:16:26;;;;;;;16.77;2.67;;;25.70;99.90;;;;;;7292967;19;20196;-89
2024/04/10 07:18:56;;;;;;;12.33;2.57;;;26.30;97.00;;;;;;7294566;19;20197;-88
2024/04/10 07:21:22;;;;;;;15.13;2.90;;;26.20;94.90;;;;;;7292961;19;20273;-88
2024/04/10 07:23:49;;;;;;;16.93;2.63;;;25.50;93.60;;;;;;7289205;19;20196;-89
2024/04/10 07:26:22;;;;;;;12.07;2.40;;;24.70;94.30;;;;;;7291350;19;20552;-88
2024/04/10 07:28:52;;;;;;;14.23;3.23;;;24.10;95.40;;;;;;7289779;19;20217;-87
2024/04/10 07:31:31;;;;;;;13.00;2.77;;;25.20;95.10;;;;;;7286771;19;20295;-88
2024/04/10 07:33:58;;;;;;;15.00;2.70;;;25.00;93.00;;;;;;7288616;19;20193;-88
2024/04/10 07:36:24;;;;;;;15.80;2.47;;;24.80;93.00;;;;;;7288938;19;20214;-88
2024/04/10 07:38:53;;;;;;;16.90;2.70;;;25.40;93.40;;;;;;7289991;19;20200;-90
2024/04/10 07:41:19;;;;;;;13.57;2.03;;;24.90;91.90;;;;;;7289223;19;20557;-87
2024/04/10 07:43:45;;;;;;;12.97;2.63;;;25.40;92.40;;;;;;7287901;19;20223;-86
2024/04/10 07:46:16;;;;;;;10.87;2.50;;;25.50;91.60;;;;;;7287510;19;20777;-87
2024/04/10 07:48:43;;;;;;;12.50;2.50;;;24.90;92.30;;;;;;7287680;19;20196;-87
2024/04/10 07:51:12;;;;;;;9.33;2.23;;;26.30;91.50;;;;;;7286186;19;20195;-87
2024/04/10 07:53:40;;;;;;;11.52;2.35;;;27.20;88.20;;;;;;7286270;19;20197;-87
2024/04/10 07:56:08;;;;;;;10.43;2.30;;;27.70;86.90;;;;;;7286418;19;20193;-87
2024/04/10 07:58:37;;;;;;;15.55;2.50;;;28.00;84.60;;;;;;7299168;19;20208;-86
2024/04/10 08:01:05;;;;;;;10.18;2.28;;;28.50;81.50;;;;;;7308130;19;20248;-84
2024/04/10 08:03:31;;;;;;;7.72;2.10;;;29.00;79.00;;;;;;7313558;19;20188;-88
2024/04/10 08:05:59;;;;;;;10.27;2.45;;;29.10;79.00;;;;;;7288573;19;20196;-89
2024/04/10 08:08:26;;;;;;;11.50;2.28;;;29.40;77.00;;;;;;7286702;19;20219;-89
2024/04/10 08:11:03;;;;;;;11.13;2.55;;;29.10;74.40;;;;;;7285927;19;20206;-87
2024/04/10 08:13:32;;;;;;;11.73;2.70;;;29.50;74.30;;;;;;7286411;19;20196;-87
2024/04/10 08:16:00;;;;;;;10.95;2.10;;;29.80;74.20;;;;;;7285371;19;20189;-91
2024/04/10 08:18:30;;;;;;;15.95;2.67;;;30.40;71.80;;;;;;7284149;19;20193;-89
2024/04/10 08:21:03;;;;;;;10.68;2.20;;;30.40;68.80;;;;;;7287558;19;20182;-88
2024/04/10 08:23:30;;;;;;;16.40;2.92;;;30.60;69.70;;;;;;7284014;19;20189;-89
2024/04/10 08:25:57;;;;;;;12.85;2.60;;;31.50;67.40;;;;;;7287977;19;20553;-88
2024/04/10 08:28:24;;;;;;;14.32;2.55;;;31.50;65.60;;;;;;7283641;19;20522;-89
2024/04/10 08:30:51;;;;;;;12.10;2.15;;;31.50;63.60;;;;;;7285130;19;20200;-89
2024/04/10 08:33:17;;;;;;;12.25;2.17;;;31.20;62.10;;;;;;7286717;19;20204;-89
2024/04/10 08:35:43;;;;;;;13.05;2.58;;;31.10;62.50;;;;;;7284218;19;20189;-90
2024/04/10 08:38:09;;;;;;;10.35;2.30;;;31.00;63.00;;;;;;7284454;19;20233;-89
2024/04/10 08:40:40;;;;;;;10.52;2.05;;;31.30;63.30;;;;;;7295816;19;20192;-89
2024/04/10 08:43:06;;;;;;;14.88;2.70;;;31.30;62.70;;;;;;7287851;19;20193;-87
2024/04/10 08:45:33;;;;;;;11.88;2.50;;;30.50;62.50;;;;;;7309720;19;20192;-90
2024/04/10 08:48:00;;;;;;;13.00;2.63;;;31.40;61.10;;;;;;7286236;19;20212;-92
2024/04/10 08:50:29;;;;;;;11.57;2.50;;;31.60;61.50;;;;;;7286399;19;20675;-87
2024/04/10 08:52:55;;;;;;;9.65;2.00;;;31.90;59.10;;;;;;7285485;19;20182;-90
2024/04/10 08:55:21;;;;;;;8.82;2.03;;;32.50;59.10;;;;;;7282484;19;20224;-91
2024/04/10 08:57:47;;;;;;;9.55;2.03;;;33.20;57.90;;;;;;7283525;19;20253;-92
2024/04/10 09:00:13;;;;;;;11.88;2.13;;;33.70;56.60;;;;;;7285399;19;20188;-92
2024/04/10 09:02:38;;;;;;;11.20;2.15;;;33.80;56.50;;;;;;7284505;19;20205;-88
2024/04/10 09:05:04;;;;;;;14.18;2.42;;;33.90;54.60;;;;;;7295366;19;20189;-89
2024/04/10 09:07:30;;;;;;;9.10;1.92;;;33.40;54.30;;;;;;7302003;19;20901;-91
2024/04/10 09:10:10;;;;;;;9.52;2.60;;;32.90;53.10;;;;;;7286216;19;20185;-92
2024/04/10 09:12:36;;;;;;;12.60;2.28;;;32.60;53.70;;;;;;7264463;19;20222;-90
2024/04/10 09:15:09;;;;;;;9.90;1.90;;;32.90;54.30;;;;;;7305478;19;20570;-91
2024/04/10 09:17:36;;;;;;;8.52;1.40;;;32.70;53.60;;;;;;7271298;19;20197;-91
2024/04/10 09:20:12;;;;;;;6.50;1.65;;;32.80;51.30;;;;;;7307766;19;20177;-91
2024/04/10 09:22:38;;;;;;;11.05;1.60;;;32.00;50.50;;;;;;7263150;19;20184;-91
2024/04/10 09:25:13;;;;;;;5.38;1.33;;;31.40;49.40;;;;;;7299345;19;20191;-89
2024/04/10 09:27:39;;;;;;;8.77;1.45;;;31.30;50.40;;;;;;7286361;19;20192;-92
2024/04/10 09:30:06;;;;;;;10.25;1.70;;;31.30;51.10;;;;;;7289436;19;20203;-90
2024/04/10 09:32:36;;;;;;;8.98;1.67;;;30.30;50.60;;;;;;7304059;19;20196;-92
2024/04/10 09:35:02;;;;;;;6.43;1.27;;;29.20;52.20;;;;;;7282817;19;20211;-91
2024/04/10 09:37:30;;;;;;;5.53;1.05;;;29.50;51.50;;;;;;7285206;19;20185;-89
2024/04/10 09:39:56;;;;;;;7.35;1.00;;;29.50;51.50;;;;;;7285405;19;20212;-93
2024/04/10 09:42:33;;;;;;;6.90;0.95;;;28.90;49.90;;;;;;7283219;19;20193;-93
2024/04/10 09:45:08;;;;;;;6.35;1.13;;;29.40;51.80;;;;;;7285642;19;20195;-92
2024/04/10 09:47:36;;;;;;;8.70;1.67;;;29.90;49.80;;;;;;7275608;19;21103;-91
2024/04/10 09:50:05;;;;;;;6.20;1.42;;;30.30;48.20;;;;;;7307183;19;20193;-92
2024/04/10 09:52:33;;;;;;;8.20;1.13;;;28.60;51.50;;;;;;7283878;19;20185;-90
2024/04/10 09:55:00;;;;;;;5.00;1.13;;;27.70;50.90;;;;;;7283126;19;20197;-88
2024/04/10 09:57:27;;;;;;;7.18;1.23;;;27.60;50.30;;;;;;7290040;19;20239;-90
2024/04/10 09:59:54;;;;;;;7.10;1.20;;;28.70;52.50;;;;;;7285782;19;20189;-91
2024/04/10 10:02:20;;;;;;;7.53;1.30;;;29.80;49.20;;;;;;7286549;19;20209;-90
2024/04/10 10:04:46;;;;;;;6.68;1.40;;;30.60;48.80;;;;;;7293187;19;20188;-90
2024/04/10 10:07:23;;;;;;;5.57;1.30;;;29.20;48.80;;;;;;7289924;19;20202;-90
2024/04/10 10:09:50;;;;;;;5.32;1.17;;;28.10;51.50;;;;;;7288614;19;20188;-86
2024/04/10 10:12:26;;;;;;;3.83;1.00;;;28.50;49.60;;;;;;7285649;19;20519;-90
2024/04/10 10:14:51;;;;;;;6.68;1.10;;;28.80;49.30;;;;;;7284592;19;20196;-91
2024/04/10 10:17:26;;;;;;;4.22;0.77;;;29.80;48.10;;;;;;7284057;19;20207;-91
2024/04/10 10:19:52;;;;;;;4.25;0.70;;;30.10;43.90;;;;;;7281306;19;20200;-91
2024/04/10 10:22:18;;;;;;;5.53;0.93;;;30.40;45.90;;;;;;7283276;19;20208;-91
2024/04/10 10:24:55;;;;;;;5.72;1.23;;;31.50;45.00;;;;;;7284868;19;20193;-88
2024/04/10 10:27:23;;;;;;;5.00;1.20;;;31.00;46.20;;;;;;7283208;19;20196;-89
2024/04/10 10:29:49;;;;;;;8.10;1.48;;;31.50;45.60;;;;;;7282603;19;20192;-89
2024/04/10 10:32:19;;;;;;;5.90;1.50;;;30.40;45.40;;;;;;7284529;19;20193;-91
2024/04/10 10:34:45;;;;;;;6.38;1.25;;;30.80;46.80;;;;;;7283901;19;20196;-91
2024/04/10 10:37:11;;;;;;;5.28;1.05;;;30.70;45.10;;;;;;7280752;19;20197;-91
2024/04/10 10:39:43;;;;;;;3.03;0.75;;;31.20;44.80;;;;;;7281536;19;20212;-90
2024/04/10 10:42:09;;;;;;;4.88;0.90;;;31.10;44.10;;;;;;7283153;19;20193;-90
2024/04/10 10:44:35;;;;;;;5.70;1.30;;;30.40;43.10;;;;;;7290391;19;20338;-90
2024/04/10 10:47:07;;;;;;;4.22;0.93;;;30.40;45.20;;;;;;7311448;19;20189;-90
2024/04/10 10:49:33;;;;;;;3.35;0.88;;;30.70;43.80;;;;;;7289657;19;20181;-91
2024/04/10 10:51:59;;;;;;;3.22;0.80;;;31.10;45.00;;;;;;7290137;19;20215;-90
2024/04/10 10:54:25;;;;;;;6.15;0.90;;;31.70;43.90;;;;;;7291341;19;20286;-88
2024/04/10 10:56:51;;;;;;;4.40;1.00;;;30.40;44.20;;;;;;7287156;19;20222;-88
2024/04/10 10:59:16;;;;;;;5.25;1.00;;;29.70;45.50;;;;;;7289140;19;20301;-89
2024/04/10 11:01:42;;;;;;;4.78;1.02;;;29.40;45.60;;;;;;7289266;19;20189;-87
2024/04/10 11:04:09;;;;;;;6.50;1.00;;;27.20;46.10;;;;;;7288981;19;20202;-88
2024/04/10 11:06:35;;;;;;;7.43;1.17;;;27.40;48.60;;;;;;7296714;19;20187;-88
2024/04/10 11:09:09;;;;;;;6.80;0.90;;;28.50;47.90;;;;;;7310326;19;20271;-88
2024/04/10 11:11:37;;;;;;;4.53;1.00;;;29.40;47.20;;;;;;7267894;19;20192;-86
2024/04/10 11:14:03;;;;;;;5.72;1.20;;;29.20;49.00;;;;;;7309763;19;20192;-86
2024/04/10 11:16:33;;;;;;;5.97;0.95;;;28.00;46.10;;;;;;7284711;19;20192;-87
2024/04/10 11:19:03;;;;;;;8.60;1.10;;;27.40;51.10;;;;;;7285094;19;20248;-87
2024/04/10 11:21:30;;;;;;;4.55;1.08;;;27.70;47.00;;;;;;7287174;19;20652;-89
2024/04/10 11:23:55;;;;;;;5.90;1.17;;;26.70;48.90;;;;;;7288297;19;20184;-88
2024/04/10 11:26:21;;;;;;;6.15;1.02;;;27.70;49.70;;;;;;7291896;19;20208;-89
2024/04/10 11:28:53;;;;;;;4.68;0.82;;;28.00;49.60;;;;;;7289963;19;20230;-88
2024/04/10 11:31:19;;;;;;;6.57;1.20;;;27.40;50.50;;;;;;7290284;19;20267;-87
2024/04/10 11:33:45;;;;;;;5.70;1.17;;;27.90;48.70;;;;;;7291480;19;20192;-88
2024/04/10 11:36:10;;;;;;;4.75;0.85;;;27.80;48.50;;;;;;7288886;19;20207;-88
2024/04/10 11:38:37;;;;;;;6.68;1.13;;;28.30;49.40;;;;;;7286851;19;20260;-87
2024/04/10 11:41:12;;;;;;;3.00;0.70;;;29.00;50.50;;;;;;7310105;19;20188;-88
2024/04/10 11:43:38;;;;;;;6.45;1.10;;;28.60;47.30;;;;;;7267696;19;20192;-88
2024/04/10 11:46:04;;;;;;;5.90;1.30;;;29.90;48.70;;;;;;7310176;19;20195;-81
2024/04/10 11:48:30;;;;;;;6.00;1.10;;;29.50;44.90;;;;;;7307661;19;20196;-88
2024/04/10 11:50:57;;;;;;;6.15;1.05;;;29.10;45.90;;;;;;7291866;19;20181;-88
2024/04/10 11:53:23;;;;;;;5.05;0.77;;;29.00;46.40;;;;;;7296902;19;20189;-88
2024/04/10 11:55:50;;;;;;;2.90;0.90;;;27.90;47.10;;;;;;7313279;19;20189;-88
2024/04/10 11:58:16;;;;;;;6.63;1.17;;;26.50;47.40;;;;;;7308005;19;20209;-87
2024/04/10 12:00:42;;;;;;;5.18;1.10;;;26.00;50.70;;;;;;7309682;19;20192;-90
2024/04/10 12:03:07;;;;;;;5.50;1.13;;;25.40;50.10;;;;;;7315624;19;20197;-86
2024/04/10 12:05:36;;;;;;;4.60;0.90;;;25.80;52.20;;;;;;7338816;19;20192;-87
2024/04/10 12:08:03;;;;;;;4.50;0.98;;;26.00;50.10;;;;;;7303562;19;20177;-86
2024/04/10 12:10:31;;;;;;;5.82;1.08;;;26.50;50.10;;;;;;7286757;19;20185;-87
2024/04/10 12:13:02;;;;;;;5.60;0.95;;;27.20;49.90;;;;;;7284307;19;20236;-90
2024/04/10 12:15:29;;;;;;;6.97;1.08;;;28.20;51.10;;;;;;7286340;19;20197;-86
2024/04/10 12:17:54;;;;;;;5.28;0.90;;;27.10;48.70;;;;;;7286962;19;20230;-88
2024/04/10 12:20:20;;;;;;;6.40;1.10;;;25.70;49.60;;;;;;7286803;19;20180;-88
2024/04/10 12:22:46;;;;;;;8.02;1.38;;;25.90;52.60;;;;;;7288529;19;20185;-89
2024/04/10 12:25:12;;;;;;;6.85;1.20;;;24.90;52.70;;;;;;7286726;19;20240;-90
2024/04/10 12:27:37;;;;;;;6.70;1.20;;;24.30;53.00;;;;;;7288194;19;20621;-90
2024/04/10 12:30:05;;;;;;;7.50;1.30;;;23.20;53.20;;;;;;7307429;19;20218;-90
2024/04/10 12:32:30;;;;;;;8.20;0.97;;;23.30;54.30;;;;;;7287225;19;20189;-89
2024/04/10 12:38:02;;;;;;;6.67;1.60;;;24.30;56.10;;;;;;7285945;19;20571;-89
2024/04/10 12:40:26;;;;;;;5.65;1.48;;;25.50;51.80;;;;;;7284618;19;20212;-89
2024/04/10 12:42:53;;;;;;;10.00;1.35;;;24.00;55.70;;;;;;7284564;19;20256;-89
2024/04/10 12:45:19;;;;;;;6.07;1.37;;;22.70;55.50;;;;;;7285574;19;20547;-89
2024/04/10 12:47:45;;;;;;;5.80;1.10;;;22.30;58.80;;;;;;7286300;19;20192;-89